| time (UTC) | temp F | wind direction | speed MPH | gust MPH | rain 1hr in | rain 24hr in | rain mn in | humidity % | barometer mb |
| 20260507143448 | 35 | 292 | 1.0 | 1.0 | 0.00 | 0.00 | 0.00 | 94 | 1011.7 |
| 20260507142944 | 35 | 204 | 1.0 | 1.0 | 0.00 | 0.00 | 0.00 | 94 | 1011.6 |
| 20260507142440 | 35 | 231 | 0.0 | 0.0 | 0.00 | 0.00 | 0.00 | 94 | 1011.7 |
| 20260507141937 | 35 | 250 | 0.0 | 1.0 | 0.00 | 0.00 | 0.00 | 94 | 1011.6 |
| 20260507141433 | 35 | 284 | 0.0 | 0.0 | 0.00 | 0.00 | 0.00 | 94 | 1011.6 |
| 20260507140930 | 35 | 265 | 1.0 | 1.0 | 0.00 | 0.00 | 0.00 | 94 | 1011.6 |
| 20260507140427 | 35 | 236 | 1.0 | 1.0 | 0.00 | 0.00 | 0.00 | 94 | 1011.7 |
| 20260507135925 | 35 | 281 | 0.0 | 0.0 | 0.00 | 0.00 | 0.00 | 95 | 1011.6 |
| 20260507135421 | 35 | 281 | 0.0 | 0.0 | 0.00 | 0.00 | 0.00 | 94 | 1011.7 |
| 20260507134918 | 35 | 286 | 0.0 | 0.0 | 0.00 | 0.00 | 0.00 | 94 | 1011.7 |
| 20260507134415 | 35 | 302 | 0.0 | 1.0 | 0.00 | 0.00 | 0.00 | 95 | 1011.7 |
| 20260507133910 | 35 | 259 | 1.0 | 1.0 | 0.00 | 0.00 | 0.00 | 94 | 1011.8 |
| 20260507133406 | 35 | 238 | 1.0 | 1.0 | 0.00 | 0.00 | 0.00 | 94 | 1011.9 |
| 20260507132900 | 35 | 284 | 0.0 | 0.0 | 0.00 | 0.00 | 0.00 | 93 | 1011.7 |
| 20260507132355 | 35 | 245 | 1.0 | 1.0 | 0.00 | 0.00 | 0.00 | 93 | 1011.8 |
| 20260507131852 | 35 | 279 | 0.0 | 0.0 | 0.00 | 0.00 | 0.00 | 93 | 1011.8 |
| 20260507131349 | 35 | 282 | 0.0 | 0.0 | 0.00 | 0.00 | 0.00 | 93 | 1011.7 |
| 20260507130846 | 35 | 254 | 0.0 | 1.0 | 0.00 | 0.00 | 0.00 | 92 | 1011.6 |
| 20260507130343 | 35 | 310 | 1.0 | 1.0 | 0.00 | 0.00 | 0.00 | 92 | 1011.5 |
| 20260507125842 | 35 | 278 | 0.0 | 0.0 | 0.00 | 0.00 | 0.00 | 93 | 1011.6 |
| 20260507125339 | 35 | 252 | 0.0 | 0.0 | 0.00 | 0.00 | 0.00 | 93 | 1011.6 |
| 20260507124837 | 35 | 281 | 0.0 | 0.0 | 0.00 | 0.00 | 0.00 | 93 | 1011.5 |
| 20260507124332 | 35 | 283 | 0.0 | 0.0 | 0.00 | 0.00 | 0.00 | 92 | 1011.7 |
| 20260507123831 | 36 | 274 | 0.0 | 0.0 | 0.00 | 0.00 | 0.00 | 92 | 1011.9 |
| 20260507123328 | 36 | 314 | 1.0 | 1.0 | 0.00 | 0.00 | 0.00 | 92 | 1011.7 |
| 20260507122824 | 35 | 273 | 3.0 | 3.0 | 0.00 | 0.00 | 0.00 | 92 | 1011.7 |
| 20260507122319 | 35 | 307 | 0.0 | 0.0 | 0.00 | 0.00 | 0.00 | 92 | 1011.5 |
| 20260507121816 | 36 | 308 | 1.0 | 1.0 | 0.00 | 0.00 | 0.00 | 92 | 1011.6 |
| 20260507121312 | 35 | 42 | 4.0 | 5.0 | 0.00 | 0.00 | 0.00 | 92 | 1011.7 |
| 20260507120808 | 35 | 276 | 0.0 | 0.0 | 0.00 | 0.00 | 0.00 | 91 | 1011.7 |
| 20260507120305 | 35 | 296 | 0.0 | 1.0 | 0.00 | 0.00 | 0.00 | 90 | 1011.7 |
| 20260507115801 | 36 | 281 | 0.0 | 0.0 | 0.00 | 0.00 | 0.00 | 89 | 1011.7 |
| 20260507115257 | 36 | 329 | 3.0 | 3.0 | 0.00 | 0.00 | 0.00 | 90 | 1011.8 |
| 20260507114753 | 36 | 8 | 1.0 | 3.0 | 0.00 | 0.00 | 0.00 | 90 | 1011.7 |
| 20260507114250 | 36 | 308 | 2.0 | 3.0 | 0.00 | 0.00 | 0.00 | 91 | 1011.8 |
| 20260507113748 | 36 | 31 | 4.0 | 6.0 | 0.00 | 0.00 | 0.00 | 90 | 1011.8 |
| 20260507113244 | 36 | 21 | 2.0 | 3.0 | 0.00 | 0.00 | 0.00 | 91 | 1011.6 |
| 20260507112742 | 36 | 349 | 4.0 | 5.0 | 0.00 | 0.00 | 0.00 | 92 | 1011.6 |
| 20260507112239 | 35 | 314 | 3.0 | 3.0 | 0.00 | 0.00 | 0.00 | 93 | 1011.7 |
| 20260507111737 | 35 | 316 | 4.0 | 6.0 | 0.00 | 0.00 | 0.00 | 93 | 1011.6 |
| 20260507111233 | 35 | 47 | 2.0 | 5.0 | 0.00 | 0.00 | 0.00 | 93 | 1011.5 |
| 20260507110729 | 35 | 279 | 0.0 | 0.0 | 0.00 | 0.00 | 0.00 | 93 | 1011.6 |
| 20260507110226 | 35 | 290 | 0.0 | 1.0 | 0.00 | 0.00 | 0.00 | 94 | 1011.5 |
| 20260507105722 | 35 | 261 | 0.0 | 0.0 | 0.00 | 0.00 | 0.00 | 94 | 1011.7 |
| 20260507105218 | 35 | 284 | 0.0 | 0.0 | 0.00 | 0.00 | 0.00 | 94 | 1011.7 |
| 20260507104716 | 35 | 278 | 0.0 | 0.0 | 0.00 | 0.00 | 0.00 | 94 | 1011.7 |
| 20260507104212 | 35 | 275 | 0.0 | 0.0 | 0.00 | 0.00 | 0.00 | 94 | 1011.6 |
| 20260507103708 | 35 | 255 | 0.0 | 0.0 | 0.00 | 0.00 | 0.00 | 94 | 1011.4 |
| 20260507103205 | 35 | 11 | 3.0 | 3.0 | 0.00 | 0.00 | 0.00 | 94 | 1011.4 |
| 20260507102701 | 35 | 269 | 0.0 | 1.0 | 0.00 | 0.00 | 0.00 | 93 | 1011.6 |
| 20260507102158 | 35 | 268 | 0.0 | 0.0 | 0.00 | 0.00 | 0.00 | 92 | 1011.6 |
| 20260507101654 | 35 | 315 | 1.0 | 1.0 | 0.00 | 0.00 | 0.00 | 92 | 1011.6 |
| 20260507101149 | 35 | 288 | 0.0 | 0.0 | 0.00 | 0.00 | 0.00 | 91 | 1011.7 |
| 20260507100647 | 35 | 299 | 1.0 | 1.0 | 0.00 | 0.00 | 0.00 | 91 | 1011.7 |
| 20260507100145 | 35 | 289 | 0.0 | 1.0 | 0.00 | 0.00 | 0.00 | 91 | 1011.5 |
| 20260507095643 | 35 | 346 | 2.0 | 2.0 | 0.00 | 0.00 | 0.00 | 93 | 1011.4 |
| 20260507095139 | 35 | 332 | 2.0 | 2.0 | 0.00 | 0.00 | 0.00 | 94 | 1011.5 |
| 20260507094636 | 35 | 354 | 3.0 | 5.0 | 0.00 | 0.00 | 0.00 | 94 | 1011.6 |
| 20260507094133 | 35 | 327 | 2.0 | 3.0 | 0.00 | 0.00 | 0.00 | 94 | 1011.6 |
| 20260507093630 | 35 | 297 | 1.0 | 1.0 | 0.00 | 0.00 | 0.00 | 93 | 1011.5 |
| 20260507093129 | 36 | 3 | 3.0 | 5.0 | 0.00 | 0.00 | 0.00 | 93 | 1011.2 |
| 20260507092625 | 36 | 28 | 2.0 | 3.0 | 0.00 | 0.00 | 0.00 | 92 | 1011.4 |
| 20260507092121 | 36 | 339 | 1.0 | 2.0 | 0.00 | 0.00 | 0.00 | 92 | 1011.5 |
| 20260507091618 | 36 | 194 | 2.0 | 3.0 | 0.00 | 0.00 | 0.00 | 93 | 1011.1 |
| 20260507091114 | 35 | 96 | 3.0 | 5.0 | 0.00 | 0.00 | 0.00 | 94 | 1011.1 |
| 20260507090610 | 35 | 17 | 5.0 | 7.0 | 0.00 | 0.00 | 0.00 | 95 | 1011.1 |
| 20260507090107 | 35 | 285 | 0.0 | 1.0 | 0.00 | 0.00 | 0.00 | 95 | 1011.4 |
| 20260507085604 | 35 | 154 | 3.0 | 3.0 | 0.00 | 0.00 | 0.00 | 95 | 1011.4 |
| 20260507085101 | 35 | 255 | 2.0 | 2.0 | 0.00 | 0.00 | 0.00 | 95 | 1011.1 |
| 20260507084558 | 36 | 321 | 1.0 | 1.0 | 0.00 | 0.00 | 0.00 | 94 | 1011.0 |
| 20260507084055 | 36 | 347 | 1.0 | 2.0 | 0.00 | 0.00 | 0.00 | 94 | 1011.0 |
| 20260507083551 | 36 | 218 | 1.0 | 2.0 | 0.00 | 0.00 | 0.00 | 95 | 1011.0 |
| 20260507083048 | 35 | 333 | 4.0 | 6.0 | 0.00 | 0.00 | 0.00 | 95 | 1011.0 |
| 20260507082544 | 36 | 312 | 1.0 | 1.0 | 0.00 | 0.00 | 0.00 | 95 | 1010.9 |
| 20260507082035 | 36 | 330 | 2.0 | 2.0 | 0.00 | 0.00 | 0.00 | 96 | 1010.8 |
| 20260507081531 | 35 | 305 | 2.0 | 2.0 | 0.00 | 0.00 | 0.00 | 96 | 1010.7 |
| 20260507081029 | 36 | 301 | 2.0 | 2.0 | 0.00 | 0.00 | 0.00 | 96 | 1010.7 |
| 20260507080524 | 35 | 316 | 1.0 | 1.0 | 0.00 | 0.00 | 0.00 | 96 | 1010.5 |
| 20260507080021 | 36 | 285 | 0.0 | 0.0 | 0.00 | 0.09 | 0.09 | 96 | 1010.6 |
| 20260507075516 | 36 | 288 | 0.0 | 0.0 | 0.00 | 0.09 | 0.09 | 96 | 1010.6 |
| 20260507075013 | 36 | 298 | 0.0 | 1.0 | 0.00 | 0.09 | 0.09 | 95 | 1010.7 |
| 20260507074509 | 36 | 302 | 3.0 | 3.0 | 0.00 | 0.09 | 0.09 | 95 | 1010.6 |
| 20260507074008 | 36 | 305 | 0.0 | 1.0 | 0.00 | 0.09 | 0.09 | 95 | 1010.8 |
| 20260507073504 | 36 | 304 | 1.0 | 1.0 | 0.00 | 0.09 | 0.09 | 95 | 1010.6 |
| 20260507073000 | 36 | 108 | 2.0 | 2.0 | 0.00 | 0.09 | 0.09 | 95 | 1010.6 |
| 20260507072458 | 36 | 275 | 0.0 | 0.0 | 0.00 | 0.09 | 0.09 | 95 | 1010.6 |
| 20260507071955 | 36 | 278 | 0.0 | 0.0 | 0.00 | 0.09 | 0.09 | 94 | 1010.5 |
| 20260507071452 | 36 | 303 | 1.0 | 1.0 | 0.00 | 0.09 | 0.09 | 94 | 1010.5 |
| 20260507070949 | 36 | 254 | 0.0 | 1.0 | 0.00 | 0.09 | 0.09 | 94 | 1010.3 |
| 20260507070446 | 36 | 277 | 0.0 | 0.0 | 0.00 | 0.09 | 0.09 | 94 | 1010.3 |
| 20260507065943 | 36 | 285 | 0.0 | 0.0 | 0.00 | 0.09 | 0.09 | 94 | 1010.3 |
| 20260507065439 | 36 | 277 | 0.0 | 0.0 | 0.00 | 0.09 | 0.09 | 94 | 1010.3 |
| 20260507064936 | 36 | 320 | 1.0 | 1.0 | 0.05 | 0.09 | 0.09 | 95 | 1010.2 |
| 20260507064435 | 36 | 277 | 0.0 | 0.0 | 0.05 | 0.09 | 0.09 | 95 | 1010.3 |
| 20260507063932 | 37 | 280 | 0.0 | 0.0 | 0.05 | 0.09 | 0.09 | 95 | 1010.3 |
| 20260507063429 | 37 | 287 | 0.0 | 0.0 | 0.00 | 0.08 | 0.08 | 95 | 1010.2 |
| 20260507062926 | 37 | 246 | 0.0 | 1.0 | 0.00 | 0.08 | 0.08 | 94 | 1010.0 |
| 20260507062423 | 37 | 313 | 1.0 | 1.0 | 0.00 | 0.08 | 0.08 | 95 | 1010.1 |
| 20260507061921 | 37 | 344 | 1.0 | 2.0 | 0.07 | 0.08 | 0.08 | 95 | 1010.1 |
| 20260507061418 | 37 | 307 | 0.0 | 1.0 | 0.07 | 0.08 | 0.08 | 95 | 1010.4 |
| 20260507060917 | 37 | 297 | 1.0 | 1.0 | 0.00 | 0.07 | 0.07 | 93 | 1009.9 |
| 20260507060413 | 37 | 310 | 0.0 | 0.0 | 0.00 | 0.07 | 0.07 | 93 | 1010.0 |
| 20260507055910 | 37 | 294 | 0.0 | 0.0 | 0.00 | 0.07 | 0.07 | 93 | 1010.0 |
| 20260507055405 | 37 | 308 | 2.0 | 2.0 | 0.00 | 0.07 | 0.07 | 93 | 1009.8 |
| 20260507054902 | 37 | 283 | 0.0 | 0.0 | 0.00 | 0.07 | 0.07 | 93 | 1009.7 |
| 20260507054358 | 37 | 289 | 0.0 | 0.0 | 0.00 | 0.07 | 0.07 | 92 | 1009.9 |
| 20260507053855 | 37 | 281 | 0.0 | 0.0 | 0.00 | 0.07 | 0.07 | 91 | 1009.9 |
| 20260507053353 | 37 | 262 | 0.0 | 0.0 | 0.05 | 0.07 | 0.07 | 92 | 1009.8 |
| 20260507052852 | 37 | 282 | 1.0 | 1.0 | 0.05 | 0.07 | 0.07 | 94 | 1009.8 |
| 20260507052348 | 37 | 300 | 0.0 | 1.0 | 0.00 | 0.06 | 0.06 | 95 | 1009.7 |
| 20260507051845 | 37 | 316 | 2.0 | 2.0 | 0.00 | 0.06 | 0.06 | 94 | 1009.7 |
| 20260507051343 | 38 | 226 | 1.0 | 2.0 | 0.00 | 0.06 | 0.06 | 92 | 1009.5 |
| 20260507050834 | 38 | 216 | 2.0 | 2.0 | 0.07 | 0.06 | 0.06 | 91 | 1009.7 |
| 20260507050330 | 38 | 249 | 0.0 | 0.0 | 0.07 | 0.06 | 0.06 | 91 | 1009.5 |
| 20260507045827 | 37 | 283 | 0.0 | 0.0 | 0.07 | 0.06 | 0.06 | 91 | 1009.7 |
| 20260507045324 | 37 | 284 | 0.0 | 0.0 | 0.00 | 0.05 | 0.05 | 91 | 1009.7 |
| 20260507044821 | 37 | 283 | 0.0 | 1.0 | 0.00 | 0.05 | 0.05 | 91 | 1009.7 |
| 20260507044318 | 37 | 288 | 0.0 | 1.0 | 0.07 | 0.05 | 0.05 | 94 | 1010.0 |
| 20260507043814 | 37 | 292 | 0.0 | 0.0 | 0.07 | 0.05 | 0.05 | 94 | 1009.7 |
| 20260507043310 | 36 | 282 | 0.0 | 0.0 | 0.05 | 0.04 | 0.04 | 94 | 1009.6 |
| 20260507042807 | 36 | 307 | 3.0 | 3.0 | 0.12 | 0.04 | 0.04 | 94 | 1009.8 |
| 20260507042306 | 36 | 324 | 3.0 | 3.0 | 0.07 | 0.03 | 0.03 | 94 | 1009.7 |
| 20260507041800 | 36 | 343 | 3.0 | 3.0 | 0.05 | 0.02 | 0.02 | 94 | 1009.8 |
| 20260507041256 | 37 | 352 | 3.0 | 3.0 | 0.05 | 0.02 | 0.02 | 93 | 1009.6 |
| 20260507040753 | 37 | 42 | 3.0 | 6.0 | 0.07 | 0.01 | 0.01 | 93 | 1009.7 |
| 20260507040249 | 37 | 11 | 3.0 | 6.0 | 0.07 | 0.01 | 0.01 | 92 | 1009.6 |
| 20260507035745 | 38 | 32 | 3.0 | 3.0 | 0.00 | 0.00 | 0.00 | 90 | 1009.5 |
| 20260507035241 | 39 | 49 | 5.0 | 7.0 | 0.00 | 0.00 | 0.00 | 87 | 1009.5 |
| 20260507034739 | 40 | 328 | 2.0 | 3.0 | 0.00 | 0.00 | 0.00 | 84 | 1009.3 |
| 20260507034235 | 41 | 161 | 5.0 | 6.0 | 0.00 | 0.00 | 0.00 | 85 | 1009.1 |
| 20260507033734 | 42 | 223 | 2.0 | 2.0 | 0.00 | 0.00 | 0.00 | 83 | 1009.0 |
| 20260507033231 | 42 | 304 | 1.0 | 2.0 | 0.00 | 0.00 | 0.00 | 78 | 1008.9 |
| 20260507032728 | 42 | 319 | 1.0 | 2.0 | 0.00 | 0.00 | 0.00 | 78 | 1008.7 |
| 20260507032224 | 41 | 336 | 3.0 | 5.0 | 0.00 | 0.00 | 0.00 | 77 | 1009.0 |
| 20260507031721 | 41 | 292 | 0.0 | 0.0 | 0.00 | 0.00 | 0.00 | 79 | 1008.9 |
| 20260507031217 | 41 | 302 | 0.0 | 0.0 | 0.00 | 0.00 | 0.00 | 81 | 1008.8 |
| 20260507030714 | 41 | 178 | 2.0 | 3.0 | 0.00 | 0.00 | 0.00 | 83 | 1008.7 |
| 20260507030212 | 41 | 252 | 1.0 | 1.0 | 0.00 | 0.00 | 0.00 | 83 | 1008.6 |
| 20260507025709 | 41 | 269 | 0.0 | 0.0 | 0.00 | 0.00 | 0.00 | 82 | 1008.9 |
| 20260507025206 | 41 | 186 | 2.0 | 2.0 | 0.00 | 0.00 | 0.00 | 82 | 1008.7 |
| 20260507024704 | 42 | 199 | 2.0 | 2.0 | 0.00 | 0.00 | 0.00 | 81 | 1008.7 |
| 20260507024201 | 42 | 248 | 1.0 | 1.0 | 0.00 | 0.00 | 0.00 | 76 | 1008.6 |
| 20260507023656 | 42 | 262 | 0.0 | 0.0 | 0.00 | 0.00 | 0.00 | 78 | 1008.7 |
| 20260507023154 | 42 | 176 | 2.0 | 2.0 | 0.00 | 0.00 | 0.00 | 79 | 1008.8 |
| 20260507022651 | 42 | 287 | 0.0 | 0.0 | 0.00 | 0.00 | 0.00 | 81 | 1008.6 |
| 20260507022146 | 42 | 216 | 1.0 | 2.0 | 0.00 | 0.00 | 0.00 | 79 | 1008.6 |
| 20260507021643 | 43 | 238 | 1.0 | 1.0 | 0.00 | 0.00 | 0.00 | 78 | 1008.4 |
| 20260507021138 | 43 | 287 | 2.0 | 2.0 | 0.00 | 0.00 | 0.00 | 77 | 1008.5 |
| 20260507020637 | 43 | 286 | 1.0 | 1.0 | 0.00 | 0.00 | 0.00 | 76 | 1008.4 |
| 20260507020132 | 43 | 250 | 1.0 | 1.0 | 0.00 | 0.00 | 0.00 | 76 | 1008.5 |
| 20260507015631 | 43 | 219 | 1.0 | 1.0 | 0.00 | 0.00 | 0.00 | 78 | 1008.4 |
| 20260507015128 | 43 | 353 | 1.0 | 2.0 | 0.00 | 0.00 | 0.00 | 76 | 1008.3 |
| 20260507014625 | 43 | 332 | 1.0 | 2.0 | 0.00 | 0.00 | 0.00 | 74 | 1008.1 |
| 20260507014121 | 43 | 306 | 1.0 | 1.0 | 0.00 | 0.00 | 0.00 | 76 | 1008.3 |
| 20260507013618 | 43 | 283 | 0.0 | 0.0 | 0.00 | 0.00 | 0.00 | 79 | 1008.1 |
| 20260507013115 | 42 | 323 | 1.0 | 2.0 | 0.00 | 0.00 | 0.00 | 79 | 1008.4 |
| 20260507012612 | 42 | 277 | 0.0 | 0.0 | 0.00 | 0.00 | 0.00 | 81 | 1008.4 |
| 20260507012107 | 42 | 291 | 1.0 | 2.0 | 0.00 | 0.00 | 0.00 | 83 | 1008.3 |
| 20260507011606 | 42 | 304 | 1.0 | 1.0 | 0.00 | 0.00 | 0.00 | 82 | 1008.3 |
| 20260507011102 | 41 | 278 | 0.0 | 0.0 | 0.00 | 0.00 | 0.00 | 81 | 1008.3 |
| 20260507010556 | 42 | 277 | 1.0 | 1.0 | 0.00 | 0.00 | 0.00 | 81 | 1008.3 |
| 20260507010052 | 41 | 291 | 1.0 | 1.0 | 0.00 | 0.00 | 0.00 | 81 | 1008.5 |
| 20260507005550 | 41 | 287 | 0.0 | 0.0 | 0.00 | 0.00 | 0.00 | 83 | 1008.4 |
| 20260507005046 | 41 | 41 | 2.0 | 2.0 | 0.00 | 0.00 | 0.00 | 83 | 1008.4 |
| 20260507004543 | 41 | 222 | 2.0 | 2.0 | 0.00 | 0.00 | 0.00 | 83 | 1008.0 |
| 20260507004041 | 41 | 216 | 3.0 | 3.0 | 0.00 | 0.00 | 0.00 | 83 | 1008.1 |
| 20260507003536 | 41 | 193 | 1.0 | 2.0 | 0.00 | 0.00 | 0.00 | 82 | 1008.1 |
| 20260507003032 | 41 | 186 | 1.0 | 2.0 | 0.00 | 0.00 | 0.00 | 84 | 1008.4 |
| 20260507002528 | 41 | 250 | 2.0 | 2.0 | 0.00 | 0.00 | 0.00 | 83 | 1008.1 |
| 20260507002019 | 41 | 330 | 1.0 | 1.0 | 0.00 | 0.00 | 0.00 | 83 | 1008.0 |
| 20260507001515 | 41 | 299 | 0.0 | 1.0 | 0.00 | 0.00 | 0.00 | 84 | 1008.1 |
| 20260507001013 | 41 | 139 | 4.0 | 5.0 | 0.00 | 0.00 | 0.00 | 84 | 1008.1 |
| 20260507000509 | 41 | 190 | 2.0 | 2.0 | 0.00 | 0.00 | 0.00 | 85 | 1008.3 |
| 20260507000005 | 41 | 143 | 3.0 | 5.0 | 0.00 | 0.00 | 0.00 | 84 | 1007.9 |
| 20260506235502 | 41 | 162 | 3.0 | 3.0 | 0.00 | 0.00 | 0.00 | 83 | 1007.9 |
| 20260506234958 | 42 | 164 | 6.0 | 7.0 | 0.00 | 0.00 | 0.00 | 82 | 1007.8 |
| 20260506234455 | 42 | 88 | 3.0 | 5.0 | 0.00 | 0.00 | 0.00 | 79 | 1007.8 |
| 20260506233953 | 42 | 21 | 2.0 | 2.0 | 0.00 | 0.00 | 0.00 | 80 | 1007.6 |
| 20260506233449 | 43 | 33 | 2.0 | 2.0 | 0.00 | 0.00 | 0.00 | 78 | 1007.7 |
| 20260506232945 | 42 | 95 | 3.0 | 3.0 | 0.00 | 0.00 | 0.00 | 79 | 1007.7 |
| 20260506232442 | 42 | 322 | 3.0 | 3.0 | 0.00 | 0.00 | 0.00 | 77 | 1007.8 |
| 20260506231938 | 42 | 25 | 3.0 | 3.0 | 0.00 | 0.00 | 0.00 | 76 | 1007.8 |
| 20260506231436 | 43 | 147 | 3.0 | 3.0 | 0.00 | 0.00 | 0.00 | 73 | 1007.8 |
| 20260506230933 | 42 | 174 | 4.0 | 5.0 | 0.00 | 0.00 | 0.00 | 74 | 1007.7 |
| 20260506230429 | 42 | 274 | 3.0 | 5.0 | 0.00 | 0.00 | 0.00 | 75 | 1007.7 |
| 20260506225925 | 42 | 184 | 4.0 | 6.0 | 0.00 | 0.00 | 0.00 | 75 | 1007.5 |
| 20260506225423 | 43 | 134 | 4.0 | 5.0 | 0.00 | 0.00 | 0.00 | 72 | 1007.7 |
| 20260506224920 | 43 | 97 | 3.0 | 5.0 | 0.00 | 0.00 | 0.00 | 73 | 1007.6 |
| 20260506224417 | 42 | 156 | 3.0 | 3.0 | 0.00 | 0.00 | 0.00 | 72 | 1007.6 |
| 20260506223913 | 43 | 155 | 4.0 | 5.0 | 0.00 | 0.00 | 0.00 | 73 | 1007.4 |
| 20260506223409 | 43 | 232 | 1.0 | 2.0 | 0.00 | 0.00 | 0.00 | 74 | 1007.6 |
| 20260506222906 | 42 | 181 | 3.0 | 3.0 | 0.00 | 0.00 | 0.00 | 74 | 1007.3 |
| 20260506222402 | 42 | 192 | 1.0 | 1.0 | 0.00 | 0.00 | 0.00 | 75 | 1007.4 |
| 20260506221900 | 42 | 264 | 1.0 | 1.0 | 0.00 | 0.00 | 0.00 | 75 | 1007.4 |
| 20260506221356 | 43 | 140 | 2.0 | 3.0 | 0.00 | 0.00 | 0.00 | 73 | 1007.4 |
| 20260506220854 | 45 | 293 | 3.0 | 3.0 | 0.00 | 0.00 | 0.00 | 68 | 1007.2 |
| 20260506220350 | 45 | 210 | 3.0 | 5.0 | 0.00 | 0.00 | 0.00 | 61 | 1007.4 |
| 20260506215846 | 45 | 356 | 4.0 | 6.0 | 0.00 | 0.00 | 0.00 | 63 | 1007.0 |
| 20260506215342 | 44 | 328 | 2.0 | 2.0 | 0.00 | 0.00 | 0.00 | 70 | 1007.2 |
| 20260506214838 | 43 | 325 | 1.0 | 1.0 | 0.00 | 0.00 | 0.00 | 75 | 1007.4 |
| 20260506214335 | 44 | 167 | 5.0 | 6.0 | 0.00 | 0.00 | 0.00 | 74 | 1007.0 |
| 20260506213834 | 44 | 257 | 1.0 | 1.0 | 0.00 | 0.00 | 0.00 | 73 | 1007.0 |
| 20260506213330 | 44 | 179 | 3.0 | 5.0 | 0.00 | 0.00 | 0.00 | 73 | 1007.1 |
| 20260506212828 | 44 | 190 | 2.0 | 2.0 | 0.00 | 0.00 | 0.00 | 74 | 1007.0 |
| 20260506212323 | 44 | 128 | 3.0 | 3.0 | 0.00 | 0.00 | 0.00 | 73 | 1007.1 |
| 20260506211819 | 45 | 171 | 3.0 | 3.0 | 0.00 | 0.00 | 0.00 | 73 | 1007.0 |
| 20260506211315 | 44 | 194 | 5.0 | 6.0 | 0.00 | 0.00 | 0.00 | 72 | 1007.0 |
| 20260506210813 | 44 | 175 | 3.0 | 5.0 | 0.00 | 0.00 | 0.00 | 72 | 1006.8 |
| 20260506210309 | 43 | 33 | 3.0 | 3.0 | 0.00 | 0.00 | 0.00 | 75 | 1006.8 |
| 20260506205806 | 43 | 115 | 3.0 | 3.0 | 0.00 | 0.00 | 0.00 | 76 | 1007.0 |
| 20260506205305 | 44 | 146 | 3.0 | 5.0 | 0.00 | 0.00 | 0.00 | 75 | 1006.6 |
| 20260506204758 | 44 | 150 | 6.0 | 7.0 | 0.00 | 0.00 | 0.00 | 74 | 1006.7 |
| 20260506204257 | 44 | 242 | 1.0 | 1.0 | 0.00 | 0.00 | 0.00 | 73 | 1006.7 |
| 20260506203754 | 44 | 259 | 1.0 | 1.0 | 0.00 | 0.00 | 0.00 | 73 | 1006.5 |
| 20260506203251 | 44 | 160 | 4.0 | 6.0 | 0.00 | 0.00 | 0.00 | 73 | 1006.7 |
| 20260506202748 | 43 | 77 | 2.0 | 3.0 | 0.00 | 0.00 | 0.00 | 74 | 1006.5 |
| 20260506202245 | 44 | 239 | 2.0 | 3.0 | 0.00 | 0.00 | 0.00 | 75 | 1006.6 |
| 20260506201741 | 44 | 52 | 3.0 | 3.0 | 0.00 | 0.00 | 0.00 | 75 | 1006.4 |
| 20260506201238 | 43 | 36 | 3.0 | 3.0 | 0.00 | 0.00 | 0.00 | 72 | 1006.3 |
| 20260506200735 | 43 | 268 | 3.0 | 3.0 | 0.00 | 0.00 | 0.00 | 76 | 1006.4 |
| 20260506200232 | 43 | 178 | 3.0 | 5.0 | 0.00 | 0.00 | 0.00 | 78 | 1006.4 |
| 20260506195728 | 43 | 269 | 3.0 | 5.0 | 0.00 | 0.00 | 0.00 | 77 | 1006.4 |
| 20260506195225 | 43 | 242 | 2.0 | 2.0 | 0.00 | 0.00 | 0.00 | 77 | 1006.4 |
| 20260506194722 | 43 | 187 | 5.0 | 6.0 | 0.00 | 0.00 | 0.00 | 76 | 1006.5 |
| 20260506194218 | 42 | 202 | 2.0 | 3.0 | 0.00 | 0.00 | 0.00 | 78 | 1006.4 |
| 20260506193716 | 43 | 84 | 2.0 | 2.0 | 0.00 | 0.00 | 0.00 | 77 | 1006.3 |
| 20260506193213 | 43 | 199 | 2.0 | 3.0 | 0.00 | 0.00 | 0.00 | 77 | 1006.1 |
| 20260506192709 | 43 | 268 | 1.0 | 1.0 | 0.00 | 0.00 | 0.00 | 73 | 1006.2 |
| 20260506192206 | 43 | 277 | 1.0 | 1.0 | 0.00 | 0.00 | 0.00 | 75 | 1006.4 |
| 20260506191657 | 41 | 218 | 2.0 | 2.0 | 0.00 | 0.00 | 0.00 | 77 | 1006.2 |
| 20260506191153 | 41 | 224 | 3.0 | 3.0 | 0.00 | 0.00 | 0.00 | 77 | 1006.4 |
| 20260506190651 | 41 | 164 | 2.0 | 2.0 | 0.00 | 0.00 | 0.00 | 78 | 1006.4 |
| 20260506190147 | 41 | 176 | 2.0 | 3.0 | 0.00 | 0.00 | 0.00 | 78 | 1006.5 |
| 20260506185644 | 41 | 176 | 6.0 | 7.0 | 0.00 | 0.00 | 0.00 | 78 | 1006.0 |
| 20260506185140 | 41 | 192 | 3.0 | 3.0 | 0.00 | 0.00 | 0.00 | 79 | 1006.2 |
| 20260506184638 | 41 | 124 | 2.0 | 2.0 | 0.00 | 0.00 | 0.00 | 80 | 1006.1 |
| 20260506184135 | 41 | 207 | 2.0 | 2.0 | 0.00 | 0.00 | 0.00 | 79 | 1006.2 |
| 20260506183632 | 40 | 213 | 2.0 | 2.0 | 0.00 | 0.00 | 0.00 | 80 | 1005.9 |
| 20260506183128 | 40 | 63 | 3.0 | 3.0 | 0.00 | 0.00 | 0.00 | 79 | 1006.1 |
| 20260506182625 | 40 | 214 | 2.0 | 2.0 | 0.00 | 0.00 | 0.00 | 80 | 1006.3 |
| 20260506182122 | 40 | 214 | 1.0 | 2.0 | 0.00 | 0.00 | 0.00 | 81 | 1006.1 |
| 20260506181620 | 40 | 235 | 1.0 | 1.0 | 0.00 | 0.00 | 0.00 | 81 | 1006.1 |
| 20260506181117 | 40 | 240 | 2.0 | 2.0 | 0.00 | 0.00 | 0.00 | 81 | 1006.0 |
| 20260506180614 | 39 | 218 | 1.0 | 2.0 | 0.00 | 0.00 | 0.00 | 81 | 1005.9 |
| 20260506180110 | 39 | 190 | 2.0 | 2.0 | 0.00 | 0.00 | 0.00 | 81 | 1005.9 |
| 20260506175607 | 39 | 264 | 0.0 | 0.0 | 0.00 | 0.00 | 0.00 | 81 | 1005.9 |
| 20260506175103 | 39 | 210 | 2.0 | 3.0 | 0.00 | 0.00 | 0.00 | 82 | 1005.9 |
| 20260506174602 | 39 | 263 | 1.0 | 1.0 | 0.00 | 0.00 | 0.00 | 81 | 1005.8 |
| 20260506174057 | 39 | 277 | 0.0 | 0.0 | 0.00 | 0.00 | 0.00 | 81 | 1005.8 |
| 20260506173555 | 39 | 230 | 1.0 | 1.0 | 0.00 | 0.00 | 0.00 | 81 | 1006.1 |
| 20260506173052 | 39 | 268 | 0.0 | 0.0 | 0.00 | 0.00 | 0.00 | 82 | 1005.9 |
| 20260506172549 | 39 | 186 | 3.0 | 3.0 | 0.00 | 0.00 | 0.00 | 81 | 1005.8 |
| 20260506172045 | 39 | 240 | 1.0 | 1.0 | 0.00 | 0.00 | 0.00 | 80 | 1005.8 |
| 20260506171543 | 39 | 254 | 0.0 | 1.0 | 0.00 | 0.00 | 0.00 | 81 | 1005.7 |
| 20260506171040 | 39 | 195 | 2.0 | 2.0 | 0.00 | 0.00 | 0.00 | 81 | 1005.6 |
| 20260506170537 | 39 | 48 | 2.0 | 2.0 | 0.00 | 0.00 | 0.00 | 81 | 1005.8 |
| 20260506170030 | 39 | 277 | 0.0 | 1.0 | 0.00 | 0.00 | 0.00 | 81 | 1005.6 |
| 20260506165528 | 38 | 292 | 0.0 | 0.0 | 0.00 | 0.00 | 0.00 | 81 | 1005.6 |
| 20260506165024 | 38 | 259 | 1.0 | 1.0 | 0.00 | 0.00 | 0.00 | 81 | 1005.8 |
| 20260506164520 | 38 | 284 | 0.0 | 0.0 | 0.00 | 0.00 | 0.00 | 81 | 1005.5 |
| 20260506164018 | 38 | 289 | 0.0 | 0.0 | 0.00 | 0.00 | 0.00 | 81 | 1005.5 |
| 20260506163514 | 38 | 304 | 1.0 | 1.0 | 0.00 | 0.00 | 0.00 | 82 | 1005.3 |
| 20260506163010 | 38 | 303 | 0.0 | 1.0 | 0.00 | 0.00 | 0.00 | 82 | 1005.4 |
| 20260506162506 | 38 | 331 | 2.0 | 2.0 | 0.00 | 0.00 | 0.00 | 82 | 1005.5 |
| 20260506162003 | 37 | 302 | 0.0 | 1.0 | 0.00 | 0.00 | 0.00 | 83 | 1005.3 |
| 20260506161500 | 37 | 285 | 0.0 | 0.0 | 0.00 | 0.00 | 0.00 | 84 | 1005.3 |
| 20260506160952 | 37 | 289 | 0.0 | 0.0 | 0.00 | 0.00 | 0.00 | 83 | 1005.2 |
| 20260506160450 | 37 | 307 | 1.0 | 1.0 | 0.00 | 0.00 | 0.00 | 83 | 1005.2 |
| 20260506155947 | 37 | 298 | 0.0 | 1.0 | 0.00 | 0.00 | 0.00 | 83 | 1005.2 |
| 20260506155444 | 37 | 302 | 0.0 | 0.0 | 0.00 | 0.00 | 0.00 | 83 | 1005.0 |
| 20260506153616 | 37 | 306 | 0.0 | 1.0 | 0.00 | 0.00 | 0.00 | 83 | 1005.2 |
| 20260506153114 | 37 | 330 | 2.0 | 2.0 | 0.00 | 0.00 | 0.00 | 83 | 1004.9 |
| 20260506152611 | 37 | 306 | 1.0 | 1.0 | 0.00 | 0.00 | 0.00 | 83 | 1005.2 |
| 20260506152109 | 37 | 326 | 2.0 | 2.0 | 0.00 | 0.00 | 0.00 | 83 | 1004.8 |
| 20260506151607 | 37 | 298 | 1.0 | 1.0 | 0.00 | 0.00 | 0.00 | 82 | 1004.8 |
| 20260506151103 | 37 | 288 | 0.0 | 0.0 | 0.00 | 0.00 | 0.00 | 81 | 1004.9 |
| 20260506150600 | 37 | 107 | 2.0 | 3.0 | 0.00 | 0.00 | 0.00 | 80 | 1005.0 |
| 20260506150057 | 37 | 243 | 0.0 | 1.0 | 0.00 | 0.00 | 0.00 | 79 | 1004.8 |
| 20260506145554 | 37 | 271 | 0.0 | 0.0 | 0.00 | 0.00 | 0.00 | 79 | 1004.8 |
| 20260506145051 | 37 | 282 | 0.0 | 0.0 | 0.00 | 0.00 | 0.00 | 79 | 1004.7 |
| 20260506144548 | 37 | 274 | 0.0 | 0.0 | 0.00 | 0.00 | 0.00 | 79 | 1004.8 |
| 20260506144045 | 37 | 298 | 0.0 | 0.0 | 0.00 | 0.00 | 0.00 | 79 | 1004.7 |